Time;durP1;ratioP1;P1;durP2;ratioP2;P2;SDS_P1;SDS_P2;PMS_P1;PMS_P2;Temp;Humidity;BMP_temperature;BMP_pressure;BME280_temperature;BME280_humidity;BME280_pressure;Samples;Min_cycle;Max_cycle;Signal;HPM_P1;HPM_P2
2023/03/05 00:01:33;;;;;;;5.43;1.20;;;3.60;99.90;;;;;;5092060;28;20122;-49
2023/03/05 00:04:00;;;;;;;6.00;1.33;;;3.60;99.90;;;;;;5114975;27;20486;-48
2023/03/05 00:06:28;;;;;;;7.85;1.30;;;3.60;99.90;;;;;;5130079;27;20058;-46
2023/03/05 00:08:57;;;;;;;15.15;1.83;;;3.60;99.90;;;;;;5130783;27;20747;-49
2023/03/05 00:11:24;;;;;;;9.30;1.50;;;3.60;99.90;;;;;;5130398;27;20051;-50
2023/03/05 00:13:54;;;;;;;6.80;1.50;;;3.60;99.90;;;;;;5129759;27;20035;-49
2023/03/05 00:16:20;;;;;;;9.30;1.60;;;3.60;99.90;;;;;;5130069;27;20478;-48
2023/03/05 00:18:46;;;;;;;9.32;1.50;;;4.30;99.90;;;;;;5128143;27;20039;-51
2023/03/05 00:21:25;;;;;;;9.48;1.65;;;3.60;99.90;;;;;;5130562;27;20039;-50
2023/03/05 00:23:52;;;;;;;10.25;1.38;;;3.60;99.90;;;;;;5125959;27;20031;-49
2023/03/05 00:26:19;;;;;;;9.50;1.40;;;3.50;99.90;;;;;;5128713;27;20059;-47
2023/03/05 00:28:48;;;;;;;12.88;1.60;;;3.50;99.90;;;;;;5129905;27;20051;-50
2023/03/05 00:31:16;;;;;;;8.10;1.85;;;3.50;99.90;;;;;;5130479;27;20114;-46
2023/03/05 00:33:42;;;;;;;6.78;1.40;;;3.50;99.90;;;;;;5129501;27;20095;-47
2023/03/05 00:36:09;;;;;;;8.32;1.70;;;3.50;99.90;;;;;;5129217;27;20111;-49
2023/03/05 00:38:34;;;;;;;8.20;1.63;;;3.50;99.90;;;;;;5131160;27;20050;-49
2023/03/05 00:41:01;;;;;;;5.57;1.27;;;3.50;99.90;;;;;;5129216;27;20394;-45
2023/03/05 00:43:27;;;;;;;8.93;1.40;;;3.40;99.90;;;;;;5130297;27;20026;-46
2023/03/05 00:45:53;;;;;;;7.20;1.10;;;3.40;99.90;;;;;;5130182;27;20043;-46
2023/03/05 00:48:18;;;;;;;5.40;1.23;;;3.40;99.90;;;;;;5130853;27;20054;-48
2023/03/05 00:50:44;;;;;;;7.32;1.15;;;3.40;99.90;;;;;;5130029;27;20372;-49
2023/03/05 00:53:10;;;;;;;7.90;1.15;;;3.40;99.90;;;;;;5130091;27;20032;-45
2023/03/05 00:55:35;;;;;;;7.03;1.40;;;3.60;99.90;;;;;;5108333;27;20493;-50
2023/03/05 00:58:01;;;;;;;9.63;1.40;;;3.40;99.90;;;;;;5129894;27;20039;-46
2023/03/05 01:00:27;;;;;;;10.52;1.35;;;3.40;99.90;;;;;;5128649;27;20067;-48
2023/03/05 01:02:53;;;;;;;7.43;1.50;;;3.40;99.90;;;;;;5130537;27;20112;-48
2023/03/05 01:05:19;;;;;;;8.27;1.30;;;3.40;99.90;;;;;;5128952;27;20035;-47
2023/03/05 01:07:45;;;;;;;8.15;1.17;;;3.40;99.90;;;;;;5128449;27;20350;-46
2023/03/05 01:10:12;;;;;;;10.50;1.42;;;3.80;99.90;;;;;;5129855;27;20061;-46
2023/03/05 01:12:37;;;;;;;6.35;0.98;;;3.40;99.90;;;;;;5129982;27;20037;-48
2023/03/05 01:15:04;;;;;;;9.10;1.30;;;3.50;99.90;;;;;;5128851;27;20487;-48
2023/03/05 01:17:30;;;;;;;4.38;1.30;;;3.40;99.90;;;;;;5099466;28;20043;-48
2023/03/05 01:19:56;;;;;;;8.07;1.30;;;3.60;99.90;;;;;;5122330;28;20387;-48
2023/03/05 01:22:22;;;;;;;3.78;1.35;;;3.50;99.90;;;;;;5099522;28;20047;-48
2023/03/05 01:24:47;;;;;;;7.22;1.15;;;3.50;99.90;;;;;;5102207;27;20088;-45
2023/03/05 01:27:13;;;;;;;8.40;1.20;;;3.50;99.90;;;;;;5104193;28;20131;-45
2023/03/05 01:29:39;;;;;;;10.40;1.40;;;3.50;99.90;;;;;;5101445;27;20538;-50
2023/03/05 01:32:05;;;;;;;6.03;1.00;;;3.50;99.90;;;;;;5133792;27;20027;-49
2023/03/05 01:34:30;;;;;;;7.50;1.33;;;3.50;99.90;;;;;;5101620;27;20123;-50
2023/03/05 01:36:56;;;;;;;6.13;1.10;;;3.50;99.90;;;;;;5104570;28;20039;-46
2023/03/05 01:39:22;;;;;;;5.35;0.93;;;3.50;99.90;;;;;;5125318;27;20046;-47
2023/03/05 01:41:47;;;;;;;5.43;1.00;;;3.50;99.90;;;;;;5104543;28;20123;-47
2023/03/05 01:44:26;;;;;;;3.08;0.75;;;3.50;99.90;;;;;;5125403;27;20487;-49
2023/03/05 01:46:51;;;;;;;5.82;0.90;;;3.50;99.90;;;;;;5133312;27;20085;-47
2023/03/05 01:49:29;;;;;;;5.22;1.23;;;3.60;99.90;;;;;;5133088;27;20063;-45
2023/03/05 01:52:16;;;;;;;4.75;0.80;;;3.50;99.90;;;;;;5133869;27;20196;-46
2023/03/05 01:54:52;;;;;;;3.15;0.77;;;3.50;99.90;;;;;;5114268;27;20032;-48
2023/03/05 01:57:42;;;;;;;5.80;0.95;;;3.50;99.90;;;;;;5128293;27;20093;-45
2023/03/05 02:00:10;;;;;;;5.95;0.80;;;3.50;99.90;;;;;;5132713;27;20386;-47
2023/03/05 02:02:36;;;;;;;8.02;1.35;;;3.50;99.90;;;;;;5114965;27;20610;-48
2023/03/05 02:05:08;;;;;;;5.70;0.93;;;3.80;99.90;;;;;;5132607;27;20114;-48
2023/03/05 02:07:36;;;;;;;6.90;0.82;;;3.50;99.90;;;;;;5133259;27;20546;-49
2023/03/05 02:10:27;;;;;;;4.80;0.80;;;3.50;99.90;;;;;;5132609;27;20047;-49
2023/03/05 02:12:55;;;;;;;5.72;1.02;;;3.50;99.90;;;;;;5133627;27;20099;-46
2023/03/05 02:15:21;;;;;;;4.47;0.70;;;3.60;99.90;;;;;;5132735;27;20039;-46
2023/03/05 02:17:47;;;;;;;3.92;0.70;;;3.50;99.90;;;;;;5134118;27;20478;-48
2023/03/05 02:20:17;;;;;;;5.15;1.02;;;3.60;99.90;;;;;;5132676;27;20095;-46
2023/03/05 02:22:43;;;;;;;3.80;0.73;;;3.40;99.90;;;;;;5132881;27;20077;-48
2023/03/05 02:25:17;;;;;;;3.13;0.68;;;3.50;99.90;;;;;;5131522;27;20081;-47
2023/03/05 02:27:50;;;;;;;3.13;0.52;;;3.40;99.90;;;;;;5132257;27;20054;-47
2023/03/05 02:30:16;;;;;;;2.63;0.65;;;3.40;99.90;;;;;;5131639;27;20035;-50
2023/03/05 02:32:41;;;;;;;2.08;0.55;;;3.40;99.90;;;;;;5108815;27;20042;-50
2023/03/05 02:35:08;;;;;;;4.13;0.80;;;3.40;99.90;;;;;;5132473;27;20467;-47
2023/03/05 02:37:33;;;;;;;4.78;0.63;;;3.40;99.90;;;;;;5100487;27;20039;-49
2023/03/05 02:39:59;;;;;;;2.28;0.60;;;3.50;99.90;;;;;;5114418;27;20043;-50
2023/03/05 02:42:25;;;;;;;7.78;0.82;;;3.70;99.90;;;;;;5131643;27;20035;-48
2023/03/05 02:44:51;;;;;;;4.20;0.60;;;3.30;99.90;;;;;;5103950;28;20047;-46
2023/03/05 02:47:16;;;;;;;3.95;0.90;;;3.30;99.90;;;;;;5098214;27;20050;-46
2023/03/05 02:49:42;;;;;;;5.45;0.90;;;3.30;99.90;;;;;;5132937;27;20023;-46
2023/03/05 02:52:08;;;;;;;5.03;1.15;;;3.50;99.90;;;;;;5100449;27;20064;-48
2023/03/05 02:54:34;;;;;;;1.88;0.60;;;3.30;99.90;;;;;;5132302;27;20474;-49
2023/03/05 02:56:59;;;;;;;4.72;0.75;;;3.10;99.90;;;;;;5102418;27;20035;-47
2023/03/05 02:59:25;;;;;;;4.43;0.65;;;3.20;99.90;;;;;;5132978;27;20042;-48
2023/03/05 03:01:50;;;;;;;4.85;0.60;;;3.20;99.90;;;;;;5131788;27;20543;-47
2023/03/05 03:04:16;;;;;;;4.00;0.65;;;3.20;99.90;;;;;;5129494;27;20043;-48
2023/03/05 03:06:42;;;;;;;4.78;1.05;;;3.20;99.90;;;;;;5128048;27;20035;-48
2023/03/05 03:09:07;;;;;;;2.65;0.55;;;3.30;99.90;;;;;;5132188;27;20126;-51
2023/03/05 03:11:33;;;;;;;6.30;0.80;;;3.30;99.90;;;;;;5124706;27;20046;-50
2023/03/05 03:13:59;;;;;;;5.50;0.75;;;3.30;99.90;;;;;;5099804;28;20042;-48
2023/03/05 03:16:25;;;;;;;4.32;0.85;;;3.30;99.90;;;;;;5092811;28;20071;-47
2023/03/05 03:18:50;;;;;;;4.00;0.60;;;3.70;99.90;;;;;;5105029;27;20066;-49
2023/03/05 03:21:23;;;;;;;2.58;0.70;;;3.30;99.90;;;;;;5132721;27;20032;-50
2023/03/05 03:23:49;;;;;;;3.00;0.70;;;3.30;99.90;;;;;;5130369;27;20039;-49
2023/03/05 03:26:15;;;;;;;4.13;0.77;;;3.50;99.90;;;;;;5130927;27;20488;-49
2023/03/05 03:28:41;;;;;;;4.32;0.75;;;3.30;99.90;;;;;;5132886;27;20046;-47
2023/03/05 03:31:07;;;;;;;5.43;0.88;;;3.20;99.90;;;;;;5133254;27;20385;-48
2023/03/05 03:33:32;;;;;;;2.58;0.90;;;3.20;99.90;;;;;;5132881;27;20045;-50
2023/03/05 03:35:59;;;;;;;2.83;0.60;;;3.20;99.90;;;;;;5080298;28;20028;-46
2023/03/05 03:38:24;;;;;;;2.65;0.68;;;3.20;99.90;;;;;;5123901;27;20077;-48
2023/03/05 03:40:50;;;;;;;3.42;0.60;;;3.20;99.90;;;;;;5118092;27;20074;-47
2023/03/05 03:43:16;;;;;;;4.95;0.93;;;3.20;99.90;;;;;;5132414;27;20037;-46
2023/03/05 03:45:42;;;;;;;3.33;0.50;;;3.10;99.90;;;;;;5131065;27;20031;-49
2023/03/05 03:48:09;;;;;;;3.80;0.80;;;3.10;99.90;;;;;;5131050;27;20217;-48
2023/03/05 03:50:39;;;;;;;4.20;0.80;;;3.20;99.90;;;;;;5097211;28;20040;-47
2023/03/05 03:53:06;;;;;;;2.67;0.80;;;3.20;99.90;;;;;;5131346;27;20066;-48
2023/03/05 03:55:32;;;;;;;7.22;1.05;;;3.10;99.90;;;;;;5132863;27;20390;-46
2023/03/05 03:57:58;;;;;;;6.65;1.02;;;3.10;99.90;;;;;;5083079;27;20040;-50
2023/03/05 04:00:23;;;;;;;3.10;0.80;;;3.10;99.90;;;;;;5130805;27;20084;-48
2023/03/05 04:02:49;;;;;;;5.25;0.90;;;3.10;99.90;;;;;;5098424;27;20100;-46
2023/03/05 04:05:15;;;;;;;3.90;0.80;;;3.10;99.90;;;;;;5131660;27;20039;-46
2023/03/05 04:07:40;;;;;;;5.22;1.10;;;3.00;99.90;;;;;;5129248;27;20046;-47
2023/03/05 04:10:06;;;;;;;4.32;1.02;;;3.00;99.90;;;;;;5130866;27;20051;-46
2023/03/05 04:12:32;;;;;;;4.03;1.05;;;3.00;99.90;;;;;;5099147;27;20039;-47
2023/03/05 04:14:58;;;;;;;5.72;1.38;;;3.00;99.90;;;;;;5131932;27;20118;-48
2023/03/05 04:17:24;;;;;;;7.22;1.42;;;3.00;99.90;;;;;;5129082;27;20067;-47
2023/03/05 04:19:49;;;;;;;6.38;1.10;;;3.00;99.90;;;;;;5101287;28;20043;-46
2023/03/05 04:22:16;;;;;;;5.75;1.00;;;3.00;99.90;;;;;;5119174;27;20091;-46
2023/03/05 04:24:42;;;;;;;5.03;1.02;;;3.00;99.90;;;;;;5130308;27;20038;-47
2023/03/05 04:27:08;;;;;;;3.63;1.10;;;3.00;99.90;;;;;;5132165;27;20042;-48
2023/03/05 04:29:34;;;;;;;6.28;1.00;;;2.90;99.90;;;;;;5132466;27;20073;-47
2023/03/05 04:32:00;;;;;;;5.07;0.90;;;2.90;99.90;;;;;;5129773;27;20039;-48
2023/03/05 04:34:25;;;;;;;3.95;1.35;;;2.90;99.90;;;;;;5115813;27;20063;-47
2023/03/05 04:36:51;;;;;;;4.18;1.20;;;3.10;99.90;;;;;;5096844;28;20065;-47
2023/03/05 04:39:19;;;;;;;3.65;1.20;;;2.90;99.90;;;;;;5131122;27;20474;-45
2023/03/05 04:41:46;;;;;;;5.53;1.13;;;2.90;99.90;;;;;;5130000;27;20050;-46
2023/03/05 04:44:12;;;;;;;4.07;1.10;;;2.90;99.90;;;;;;5129980;27;20114;-46
2023/03/05 04:46:38;;;;;;;5.93;1.20;;;2.90;99.90;;;;;;5129005;27;20038;-46
2023/03/05 04:49:04;;;;;;;5.65;1.00;;;3.00;99.90;;;;;;5131467;27;20550;-47
2023/03/05 04:51:29;;;;;;;2.53;0.80;;;2.90;99.90;;;;;;5128684;27;20104;-46
2023/03/05 04:53:55;;;;;;;5.40;1.02;;;2.90;99.90;;;;;;5101029;28;20044;-46
2023/03/05 04:56:21;;;;;;;5.18;1.20;;;3.00;99.90;;;;;;5118902;27;20088;-47
2023/03/05 04:58:46;;;;;;;7.13;1.10;;;2.90;99.90;;;;;;5129485;27;20049;-47
2023/03/05 05:01:12;;;;;;;4.00;1.00;;;2.90;99.90;;;;;;5129500;27;20509;-45
2023/03/05 05:03:38;;;;;;;4.68;0.90;;;2.90;99.90;;;;;;5130861;27;20031;-48
2023/03/05 05:06:04;;;;;;;6.07;1.67;;;3.20;99.90;;;;;;5128640;27;20076;-47
2023/03/05 05:08:29;;;;;;;4.50;1.20;;;2.80;99.90;;;;;;5130579;27;20372;-50
2023/03/05 05:11:00;;;;;;;8.20;1.33;;;2.70;99.90;;;;;;5129954;27;20452;-46
2023/03/05 05:13:27;;;;;;;4.13;1.00;;;2.80;99.90;;;;;;5129765;27;20042;-49
2023/03/05 05:15:52;;;;;;;8.23;1.05;;;3.60;99.90;;;;;;5129333;27;20039;-49
2023/03/05 05:18:19;;;;;;;6.95;1.10;;;2.70;99.90;;;;;;5129608;27;20099;-50
2023/03/05 05:20:44;;;;;;;4.50;1.20;;;2.80;99.90;;;;;;5123220;27;20386;-47
2023/03/05 05:23:10;;;;;;;4.13;1.10;;;2.80;99.90;;;;;;5100858;28;20115;-47
2023/03/05 05:25:36;;;;;;;7.03;1.10;;;2.80;99.90;;;;;;5118788;28;20106;-47
2023/03/05 05:28:02;;;;;;;8.57;1.13;;;2.80;99.90;;;;;;5130451;28;20038;-47
2023/03/05 05:30:28;;;;;;;5.57;0.80;;;2.90;99.90;;;;;;5129344;28;20035;-47
2023/03/05 05:32:53;;;;;;;6.22;1.00;;;2.80;99.90;;;;;;5131707;28;20042;-48
2023/03/05 05:35:19;;;;;;;9.88;1.17;;;2.80;99.90;;;;;;5130865;28;20054;-48
2023/03/05 05:37:45;;;;;;;8.18;1.10;;;2.90;99.90;;;;;;5089593;28;20039;-49
2023/03/05 05:40:11;;;;;;;4.75;0.90;;;2.90;99.90;;;;;;5116680;28;20398;-46
2023/03/05 05:42:37;;;;;;;4.13;0.93;;;2.90;99.90;;;;;;5130018;28;20792;-52
2023/03/05 05:45:03;;;;;;;8.57;1.23;;;2.90;99.90;;;;;;5128531;28;20043;-48
2023/03/05 05:47:29;;;;;;;3.33;0.80;;;3.00;99.90;;;;;;5129122;28;20044;-49
2023/03/05 05:49:55;;;;;;;5.53;1.08;;;3.20;99.90;;;;;;5129314;28;20061;-47
2023/03/05 05:52:21;;;;;;;5.80;0.80;;;3.00;99.90;;;;;;5129668;28;20482;-50
2023/03/05 05:54:47;;;;;;;6.20;0.93;;;3.00;99.90;;;;;;5125302;28;20123;-48
2023/03/05 05:57:13;;;;;;;5.40;1.00;;;3.00;99.90;;;;;;5131438;28;20046;-52
2023/03/05 05:59:39;;;;;;;2.85;0.75;;;3.00;99.90;;;;;;5130969;28;20049;-48
2023/03/05 06:02:06;;;;;;;5.40;0.90;;;3.00;99.90;;;;;;5129663;28;20027;-46
2023/03/05 06:04:33;;;;;;;4.97;1.10;;;3.40;99.90;;;;;;5118939;28;20476;-49
2023/03/05 06:06:59;;;;;;;5.97;0.80;;;3.10;99.90;;;;;;5116349;28;20040;-50
2023/03/05 06:09:26;;;;;;;4.80;0.85;;;3.00;99.90;;;;;;5117171;27;20092;-49
2023/03/05 06:11:52;;;;;;;5.70;0.82;;;3.10;99.90;;;;;;5130913;27;20047;-49
2023/03/05 06:14:18;;;;;;;3.67;0.70;;;2.90;99.90;;;;;;5130432;27;20143;-48
2023/03/05 06:16:43;;;;;;;3.85;0.75;;;3.00;99.90;;;;;;5117293;27;20411;-48
2023/03/05 06:19:14;;;;;;;6.88;0.90;;;3.00;99.90;;;;;;5132501;27;20043;-47
2023/03/05 06:21:42;;;;;;;2.80;0.80;;;3.00;99.90;;;;;;5131661;27;20070;-48
2023/03/05 06:24:08;;;;;;;3.53;0.80;;;2.90;99.90;;;;;;5116250;27;20470;-49
2023/03/05 06:26:34;;;;;;;6.90;0.93;;;2.90;99.90;;;;;;5133454;27;20043;-48
2023/03/05 06:29:00;;;;;;;2.22;0.90;;;3.00;99.90;;;;;;5130881;27;20022;-49
2023/03/05 06:31:27;;;;;;;4.28;0.85;;;3.40;99.90;;;;;;5132571;27;20493;-47
2023/03/05 06:33:55;;;;;;;4.50;0.77;;;2.90;99.90;;;;;;5132272;27;20047;-47
2023/03/05 06:36:23;;;;;;;3.95;0.85;;;2.90;99.90;;;;;;5130205;27;20066;-47
2023/03/05 06:38:49;;;;;;;7.68;1.05;;;3.10;99.90;;;;;;5131509;27;20122;-47
2023/03/05 06:41:19;;;;;;;4.30;0.80;;;3.00;99.90;;;;;;5132828;27;20074;-46
2023/03/05 06:43:45;;;;;;;4.43;0.75;;;3.00;99.90;;;;;;5131363;27;20050;-49
2023/03/05 06:46:14;;;;;;;5.60;0.98;;;3.00;99.90;;;;;;5134360;27;20383;-47
2023/03/05 06:48:42;;;;;;;7.72;0.95;;;3.00;99.90;;;;;;5134403;27;20103;-47
2023/03/05 06:51:23;;;;;;;4.93;0.90;;;3.00;99.90;;;;;;5133426;27;20430;-49
2023/03/05 06:53:49;;;;;;;4.32;0.80;;;3.00;99.90;;;;;;5131833;27;20042;-50
2023/03/05 06:56:16;;;;;;;7.82;1.00;;;3.00;99.90;;;;;;5132553;27;20031;-47
2023/03/05 06:58:44;;;;;;;3.50;1.08;;;3.10;99.90;;;;;;5100079;27;20472;-45
2023/03/05 07:01:10;;;;;;;2.78;0.70;;;3.10;99.90;;;;;;5129234;27;20074;-49
2023/03/05 07:03:37;;;;;;;4.40;1.38;;;3.20;99.90;;;;;;5131566;27;20043;-47
2023/03/05 07:06:08;;;;;;;4.47;0.90;;;3.20;99.90;;;;;;5102584;28;20042;-47
2023/03/05 07:08:34;;;;;;;4.82;0.90;;;3.10;99.90;;;;;;5126273;27;20079;-51
2023/03/05 07:11:00;;;;;;;6.22;1.15;;;3.20;99.90;;;;;;5131567;27;20039;-46
2023/03/05 07:13:27;;;;;;;3.92;0.60;;;3.10;99.90;;;;;;5131887;27;20046;-51
2023/03/05 07:15:53;;;;;;;6.47;0.95;;;3.20;99.90;;;;;;5132049;27;20031;-47
2023/03/05 07:18:19;;;;;;;5.25;1.00;;;3.10;99.90;;;;;;5131342;27;20478;-46
2023/03/05 07:20:45;;;;;;;5.50;1.23;;;3.10;99.90;;;;;;5132241;27;20152;-47
2023/03/05 07:23:11;;;;;;;4.25;0.80;;;3.30;99.90;;;;;;5131716;27;20031;-47
2023/03/05 07:25:37;;;;;;;6.68;1.60;;;3.10;99.90;;;;;;5132022;27;20043;-48
2023/03/05 07:28:05;;;;;;;6.68;1.08;;;3.20;99.90;;;;;;5130916;27;20771;-51
2023/03/05 07:30:31;;;;;;;4.65;1.02;;;3.30;99.90;;;;;;5131714;27;20039;-48
2023/03/05 07:32:57;;;;;;;3.65;0.70;;;3.20;99.90;;;;;;5133757;27;20039;-47
2023/03/05 07:35:23;;;;;;;6.07;1.00;;;3.20;99.90;;;;;;5133471;27;20035;-46
2023/03/05 07:37:49;;;;;;;3.95;0.85;;;3.30;99.90;;;;;;5099085;27;21179;-47
2023/03/05 07:40:15;;;;;;;3.88;0.93;;;3.20;99.90;;;;;;5132148;27;20114;-48
2023/03/05 07:42:41;;;;;;;4.60;0.90;;;3.30;99.90;;;;;;5130346;27;20119;-51
2023/03/05 07:45:07;;;;;;;5.25;1.20;;;3.30;99.90;;;;;;5088896;27;20047;-48
2023/03/05 07:47:33;;;;;;;8.65;1.70;;;3.40;99.90;;;;;;5130526;27;20399;-50
2023/03/05 07:49:59;;;;;;;4.43;1.23;;;3.40;99.90;;;;;;5131704;27;20110;-48
2023/03/05 07:52:25;;;;;;;6.43;0.80;;;3.40;99.90;;;;;;5129939;27;20123;-47
2023/03/05 07:54:51;;;;;;;5.55;0.80;;;3.40;99.90;;;;;;5129815;27;20138;-47
2023/03/05 07:57:16;;;;;;;6.65;1.55;;;3.40;99.90;;;;;;5128885;27;20085;-47
2023/03/05 07:59:42;;;;;;;8.48;0.90;;;3.50;99.90;;;;;;5131323;27;20035;-50
2023/03/05 08:02:12;;;;;;;3.05;0.70;;;3.40;99.90;;;;;;5098280;27;20119;-47
2023/03/05 08:04:41;;;;;;;2.25;0.82;;;4.30;99.90;;;;;;5109305;27;20032;-46
2023/03/05 08:07:06;;;;;;;2.67;0.70;;;3.50;99.90;;;;;;5088068;28;20047;-48
2023/03/05 08:09:32;;;;;;;4.63;0.80;;;3.60;99.90;;;;;;5098249;27;20478;-48
2023/03/05 08:11:58;;;;;;;4.38;0.63;;;3.50;99.90;;;;;;5101466;27;20455;-48
2023/03/05 08:14:24;;;;;;;4.60;0.88;;;3.60;99.90;;;;;;5100619;27;20031;-48
2023/03/05 08:16:51;;;;;;;3.08;0.70;;;3.60;99.90;;;;;;5089290;27;20374;-47
2023/03/05 08:19:18;;;;;;;4.03;0.80;;;3.70;99.90;;;;;;5087008;27;20459;-49
2023/03/05 08:21:44;;;;;;;1.35;0.60;;;3.70;99.90;;;;;;5098858;27;20075;-47
2023/03/05 08:24:12;;;;;;;3.60;0.60;;;3.70;99.90;;;;;;5099654;27;20027;-46
2023/03/05 08:26:39;;;;;;;2.72;0.75;;;3.70;99.90;;;;;;5100187;27;20101;-49
2023/03/05 08:29:09;;;;;;;6.13;0.73;;;3.90;99.90;;;;;;5103423;27;20422;-48
2023/03/05 08:31:34;;;;;;;5.05;0.80;;;3.80;99.90;;;;;;5104067;27;20042;-50
2023/03/05 08:34:01;;;;;;;4.60;0.90;;;3.90;99.90;;;;;;5100110;27;20465;-50
2023/03/05 08:36:27;;;;;;;3.55;0.63;;;4.30;99.90;;;;;;5100266;27;20088;-47
2023/03/05 08:38:53;;;;;;;6.13;1.00;;;4.10;99.90;;;;;;5101020;27;20712;-49
2023/03/05 08:41:19;;;;;;;5.55;0.80;;;4.20;99.90;;;;;;5100112;27;20096;-51
2023/03/05 08:43:45;;;;;;;4.78;1.13;;;4.30;99.90;;;;;;5098931;27;20059;-48
2023/03/05 08:46:13;;;;;;;4.93;1.00;;;4.30;99.90;;;;;;5103785;27;20040;-47
2023/03/05 08:48:38;;;;;;;6.13;1.63;;;4.40;99.90;;;;;;5106678;27;20338;-46
2023/03/05 08:51:12;;;;;;;7.30;0.90;;;4.40;99.90;;;;;;5106139;27;20084;-49
2023/03/05 08:53:39;;;;;;;3.65;0.70;;;4.50;99.90;;;;;;5100343;27;20036;-46
2023/03/05 08:56:05;;;;;;;10.18;1.02;;;4.50;99.90;;;;;;5088997;28;20076;-49
2023/03/05 08:58:32;;;;;;;4.57;1.05;;;4.60;99.90;;;;;;5116915;27;20049;-49
2023/03/05 09:00:57;;;;;;;11.40;1.23;;;4.70;99.90;;;;;;5087525;28;20032;-47
2023/03/05 09:03:23;;;;;;;5.65;1.00;;;4.70;99.90;;;;;;5113223;27;20087;-46
2023/03/05 09:05:50;;;;;;;7.38;1.30;;;4.90;99.90;;;;;;5091532;28;20075;-46
2023/03/05 09:08:16;;;;;;;7.90;1.73;;;4.90;99.90;;;;;;5123034;27;20410;-47
2023/03/05 09:10:42;;;;;;;3.40;0.90;;;5.00;99.90;;;;;;5094318;28;20101;-49
2023/03/05 09:13:09;;;;;;;5.55;0.93;;;5.00;99.90;;;;;;5101008;27;20118;-50
2023/03/05 09:15:35;;;;;;;7.32;1.30;;;5.10;99.90;;;;;;5128804;27;20035;-47
2023/03/05 09:18:01;;;;;;;4.45;1.05;;;5.50;99.90;;;;;;5129212;27;20058;-50
2023/03/05 09:20:27;;;;;;;8.23;1.00;;;5.20;99.90;;;;;;5128432;27;20051;-49
2023/03/05 09:22:53;;;;;;;6.13;1.02;;;5.30;99.90;;;;;;5125259;28;20043;-46
2023/03/05 09:25:19;;;;;;;6.57;1.00;;;5.30;99.90;;;;;;5117266;28;20035;-48
2023/03/05 09:27:45;;;;;;;7.95;1.42;;;5.30;99.90;;;;;;5126145;28;20043;-48
2023/03/05 09:30:11;;;;;;;4.95;1.25;;;5.40;99.90;;;;;;5120733;28;21244;-47
2023/03/05 09:32:37;;;;;;;7.78;1.13;;;5.60;99.90;;;;;;5112260;28;20394;-50
2023/03/05 09:35:04;;;;;;;6.18;1.08;;;5.50;99.90;;;;;;5119419;28;20042;-48
2023/03/05 09:37:29;;;;;;;8.52;1.30;;;5.60;99.90;;;;;;5094879;28;20044;-47
2023/03/05 09:39:56;;;;;;;10.00;1.23;;;5.70;99.90;;;;;;5126227;28;20130;-48
2023/03/05 09:42:36;;;;;;;4.43;0.90;;;5.90;99.90;;;;;;5122636;28;20043;-48
2023/03/05 09:45:17;;;;;;;9.85;1.35;;;6.00;99.90;;;;;;5128020;27;20388;-51
2023/03/05 09:47:50;;;;;;;5.63;1.13;;;6.10;99.90;;;;;;5127190;27;20039;-47
2023/03/05 09:50:32;;;;;;;6.43;1.08;;;6.10;99.90;;;;;;5099199;27;20122;-49
2023/03/05 09:53:05;;;;;;;8.90;1.10;;;6.00;99.90;;;;;;5133307;27;20035;-51
2023/03/05 09:55:40;;;;;;;5.55;1.10;;;6.00;99.90;;;;;;5125600;27;20031;-46
2023/03/05 09:58:14;;;;;;;8.98;1.92;;;6.00;99.90;;;;;;5092404;28;20032;-47
2023/03/05 10:00:43;;;;;;;7.45;1.13;;;6.00;99.90;;;;;;5121217;27;20044;-46
2023/03/05 10:03:16;;;;;;;9.13;1.65;;;5.90;99.90;;;;;;5124965;27;20043;-47
2023/03/05 10:05:52;;;;;;;5.43;1.13;;;5.90;99.90;;;;;;5117126;27;20031;-50
2023/03/05 10:08:23;;;;;;;5.50;0.88;;;5.90;99.90;;;;;;5120428;27;20062;-49
2023/03/05 10:10:52;;;;;;;11.75;1.00;;;5.90;99.90;;;;;;5130021;27;20062;-46
2023/03/05 10:13:29;;;;;;;7.20;1.20;;;6.00;99.90;;;;;;5096535;27;20088;-47
2023/03/05 10:16:06;;;;;;;12.27;1.10;;;6.10;99.90;;;;;;5129548;27;20027;-50
2023/03/05 10:18:38;;;;;;;7.28;1.00;;;6.10;99.90;;;;;;5131328;27;20075;-48
2023/03/05 10:21:11;;;;;;;6.95;0.80;;;6.20;99.90;;;;;;5131583;27;20486;-50
2023/03/05 10:24:05;;;;;;;9.60;1.10;;;6.20;99.90;;;;;;5130477;27;20091;-46
2023/03/05 10:26:51;;;;;;;6.90;0.98;;;6.10;99.90;;;;;;5129538;27;20039;-47
2023/03/05 10:29:49;;;;;;;5.03;0.93;;;6.10;99.90;;;;;;5101136;27;20050;-48
2023/03/05 10:32:43;;;;;;;8.38;1.17;;;6.10;99.90;;;;;;5114456;27;20089;-50
2023/03/05 10:35:36;;;;;;;3.70;0.80;;;6.10;99.90;;;;;;5118526;27;20110;-49
2023/03/05 10:38:19;;;;;;;8.68;1.20;;;6.20;99.90;;;;;;5124210;27;20048;-48
2023/03/05 10:40:47;;;;;;;7.07;0.80;;;6.40;99.90;;;;;;5124499;27;20150;-49
2023/03/05 10:43:44;;;;;;;6.78;1.08;;;6.40;99.90;;;;;;5099304;28;20484;-47
2023/03/05 10:46:15;;;;;;;5.78;0.82;;;6.40;99.90;;;;;;5121597;27;20069;-47
2023/03/05 10:48:52;;;;;;;6.00;0.70;;;6.40;99.90;;;;;;5123748;27;20036;-45
2023/03/05 10:51:43;;;;;;;4.90;0.80;;;6.30;99.90;;;;;;5119490;27;20035;-50
2023/03/05 10:54:24;;;;;;;8.13;1.08;;;6.40;99.90;;;;;;5127563;27;20036;-47
2023/03/05 10:56:50;;;;;;;4.95;0.90;;;6.60;99.90;;;;;;5127187;27;20126;-48
2023/03/05 10:59:15;;;;;;;3.92;0.77;;;6.60;99.90;;;;;;5094365;28;20035;-49
2023/03/05 11:01:41;;;;;;;4.85;0.80;;;7.00;99.90;;;;;;5092676;28;20039;-46
2023/03/05 11:04:25;;;;;;;4.80;0.90;;;6.60;99.90;;;;;;5124223;27;20039;-47
2023/03/05 11:06:51;;;;;;;7.07;1.08;;;6.70;99.90;;;;;;5130249;27;20114;-48
2023/03/05 11:09:19;;;;;;;4.60;0.95;;;6.80;99.90;;;;;;5092301;28;20161;-50
2023/03/05 11:12:04;;;;;;;3.15;0.90;;;6.80;99.90;;;;;;5127638;27;20494;-49
2023/03/05 11:14:34;;;;;;;7.32;1.20;;;6.90;99.90;;;;;;5122906;27;20035;-46
2023/03/05 11:17:02;;;;;;;6.78;0.80;;;7.00;99.90;;;;;;5116784;27;20071;-49
2023/03/05 11:19:33;;;;;;;4.78;0.80;;;7.00;99.90;;;;;;5099090;27;20028;-47
2023/03/05 11:22:17;;;;;;;3.17;0.70;;;7.00;99.90;;;;;;5101220;27;20514;-46
2023/03/05 11:25:01;;;;;;;;;;;7.00;99.90;;;;;;5094287;27;20487;-51
2023/03/05 11:27:41;;;;;;;6.50;1.20;;;7.00;99.90;;;;;;5102191;27;19935;-45
2023/03/05 11:30:20;;;;;;;4.75;0.93;;;7.10;99.90;;;;;;5107896;27;20030;-51
2023/03/05 11:32:46;;;;;;;5.72;0.82;;;7.20;99.90;;;;;;5106141;27;20043;-47
2023/03/05 11:35:33;;;;;;;4.93;1.02;;;7.30;99.90;;;;;;5091253;27;20028;-50
2023/03/05 11:38:01;;;;;;;3.83;0.80;;;7.40;99.90;;;;;;5102174;27;20518;-48
2023/03/05 11:40:34;;;;;;;3.33;0.60;;;7.50;99.90;;;;;;5101880;27;20046;-47
2023/03/05 11:43:01;;;;;;;5.05;0.82;;;7.60;99.90;;;;;;5101791;27;20081;-48
2023/03/05 11:45:29;;;;;;;4.35;0.80;;;7.60;99.90;;;;;;5101423;27;20754;-49
2023/03/05 11:48:17;;;;;;;3.72;0.88;;;7.70;99.90;;;;;;5101082;27;20106;-51
2023/03/05 11:50:46;;;;;;;6.45;0.80;;;7.80;99.90;;;;;;5090207;27;20040;-50
2023/03/05 11:53:31;;;;;;;3.67;0.80;;;8.20;99.90;;;;;;5099921;27;20111;-49
2023/03/05 11:56:13;;;;;;;6.18;1.00;;;8.20;99.90;;;;;;5101437;27;20040;-48
2023/03/05 11:59:00;;;;;;;5.95;0.63;;;8.30;99.90;;;;;;5101764;27;20127;-51
2023/03/05 12:01:30;;;;;;;3.65;0.50;;;8.40;99.90;;;;;;5091991;27;20048;-47
2023/03/05 12:03:57;;;;;;;5.32;1.00;;;8.50;99.90;;;;;;5096101;27;20050;-49
2023/03/05 12:06:37;;;;;;;5.60;0.80;;;8.60;99.90;;;;;;5103772;27;20035;-51
2023/03/05 12:09:46;;;;;;;4.30;1.00;;;8.50;99.90;;;;;;5101538;27;20039;-49
2023/03/05 12:12:45;;;;;;;3.55;0.68;;;8.30;99.90;;;;;;5036256;28;20045;-49
2023/03/05 12:15:11;;;;;;;4.85;0.90;;;8.00;99.90;;;;;;5103800;27;20024;-49
2023/03/05 12:17:50;;;;;;;6.55;0.85;;;7.70;99.90;;;;;;5103770;27;20046;-50
2023/03/05 12:20:41;;;;;;;3.75;0.57;;;7.50;99.90;;;;;;5102467;27;20031;-48
2023/03/05 12:23:16;;;;;;;5.18;0.85;;;7.20;99.90;;;;;;5080314;27;20050;-48
2023/03/05 12:25:47;;;;;;;6.15;0.80;;;7.00;99.90;;;;;;5101495;27;20035;-49
2023/03/05 12:28:16;;;;;;;6.35;1.00;;;6.90;99.90;;;;;;5097301;28;20032;-48
2023/03/05 12:30:41;;;;;;;6.20;1.00;;;6.70;99.90;;;;;;5116135;27;20104;-48
2023/03/05 12:33:42;;;;;;;5.55;0.88;;;6.70;99.90;;;;;;5127517;27;20478;-47
2023/03/05 12:36:19;;;;;;;3.42;0.70;;;6.70;99.90;;;;;;5128262;27;20035;-49
2023/03/05 12:38:51;;;;;;;4.13;0.70;;;6.80;99.90;;;;;;5127663;27;20046;-47
2023/03/05 12:41:22;;;;;;;8.43;1.00;;;6.80;99.90;;;;;;5128345;27;20065;-47
2023/03/05 12:44:03;;;;;;;7.45;0.98;;;7.00;99.90;;;;;;5130004;27;20046;-48
2023/03/05 12:46:31;;;;;;;5.47;0.90;;;7.10;99.90;;;;;;5130665;27;20035;-49
2023/03/05 12:48:57;;;;;;;3.63;0.60;;;7.20;99.90;;;;;;5130579;27;20083;-50
2023/03/05 12:51:42;;;;;;;4.85;0.95;;;7.20;99.90;;;;;;5130210;27;21923;-47
2023/03/05 12:54:26;;;;;;;2.45;0.80;;;7.30;99.90;;;;;;5129679;27;20027;-47
2023/03/05 12:56:58;;;;;;;4.88;1.00;;;7.50;99.90;;;;;;5129055;27;20035;-50
2023/03/05 12:59:37;;;;;;;7.28;0.90;;;7.60;99.90;;;;;;5129979;27;20490;-46
2023/03/05 13:02:19;;;;;;;5.10;0.60;;;7.80;99.90;;;;;;5079726;28;20407;-49
2023/03/05 13:04:46;;;;;;;6.13;1.20;;;8.00;99.90;;;;;;5128118;27;20485;-51
2023/03/05 13:07:16;;;;;;;3.63;0.73;;;8.10;99.90;;;;;;5128963;27;20039;-48
2023/03/05 13:09:54;;;;;;;5.43;0.90;;;8.40;99.90;;;;;;5130742;27;20058;-50